Tampa, Florida
Traffic Map
Current Weather Conditions
Tampa, Florida
Scattered Clouds
Scattered Clouds
22°
Feels Like: 22°
Wind Chill: 22° Ceiling: Unl
Heat Index: 22° Visibility: 10mi
Dew Point: 17° Wind: 7mph
Humidity: 73% Direction: 250° (WSW)
Pressure: 29.97in Gusts: 0mph
Raw Report DataKTPA 231353Z 25006KT 10SM SCT023 22/17 A2997 RMK AO2 SLP147 T02170167
Traffic Incident Summary
Active as of:
Severity:
Category:
InformationThere was an issue retrieving the traffic information for this location. Please try a different location or try again shortly.
Advertisements
At Last! Intellicast now available for iPhone and Android